sensor_id;sensor_type;location;lat;lon;timestamp;pressure;altitude;pressure_sealevel;temperature;humidity
12358;BME280;6243;51.244;6.774;2023-01-28T00:01:11;149191.50;;;6.86;100.00
12358;BME280;6243;51.244;6.774;2023-01-28T00:03:37;149202.88;;;6.91;100.00
12358;BME280;6243;51.244;6.774;2023-01-28T00:06:06;149131.94;;;6.63;100.00
12358;BME280;6243;51.244;6.774;2023-01-28T00:08:32;149134.47;;;6.64;100.00
12358;BME280;6243;51.244;6.774;2023-01-28T00:10:58;149139.53;;;6.66;100.00
12358;BME280;6243;51.244;6.774;2023-01-28T00:13:24;149138.28;;;6.65;100.00
12358;BME280;6243;51.244;6.774;2023-01-28T00:15:54;149144.59;;;6.68;100.00
12358;BME280;6243;51.244;6.774;2023-01-28T00:18:19;149142.06;;;6.67;100.00
12358;BME280;6243;51.244;6.774;2023-01-28T00:20:55;149149.66;;;6.70;100.00
12358;BME280;6243;51.244;6.774;2023-01-28T00:23:22;149163.63;;;6.75;100.00
12358;BME280;6243;51.244;6.774;2023-01-28T00:25:47;149130.66;;;6.62;100.00
12358;BME280;6243;51.244;6.774;2023-01-28T00:28:12;149112.91;;;6.55;100.00
12358;BME280;6243;51.244;6.774;2023-01-28T00:30:38;149128.16;;;6.61;100.00
12358;BME280;6243;51.244;6.774;2023-01-28T00:33:03;149130.66;;;6.62;100.00
12358;BME280;6243;51.244;6.774;2023-01-28T00:35:29;149096.47;;;6.49;100.00
12358;BME280;6243;51.244;6.774;2023-01-28T00:37:54;149067.31;;;6.37;100.00
12358;BME280;6243;51.244;6.774;2023-01-28T00:40:21;149040.75;;;6.26;100.00
12358;BME280;6243;51.244;6.774;2023-01-28T00:42:47;149069.88;;;6.38;100.00
12358;BME280;6243;51.244;6.774;2023-01-28T00:45:12;149044.53;;;6.28;100.00
12358;BME280;6243;51.244;6.774;2023-01-28T00:47:38;149050.88;;;6.30;100.00
12358;BME280;6243;51.244;6.774;2023-01-28T00:50:04;149035.69;;;6.24;100.00
12358;BME280;6243;51.244;6.774;2023-01-28T00:52:30;149024.28;;;6.20;100.00
12358;BME280;6243;51.244;6.774;2023-01-28T00:54:55;149054.69;;;6.32;100.00
12358;BME280;6243;51.244;6.774;2023-01-28T00:57:22;149058.47;;;6.33;100.00
12358;BME280;6243;51.244;6.774;2023-01-28T00:59:48;149033.13;;;6.23;100.00
12358;BME280;6243;51.244;6.774;2023-01-28T01:02:13;149028.06;;;6.21;100.00
12358;BME280;6243;51.244;6.774;2023-01-28T01:04:39;148993.91;;;6.08;100.00
12358;BME280;6243;51.244;6.774;2023-01-28T01:07:05;149007.84;;;6.13;100.00
12358;BME280;6243;51.244;6.774;2023-01-28T01:09:31;149000.22;;;6.10;100.00
12358;BME280;6243;51.244;6.774;2023-01-28T01:11:56;148967.31;;;5.97;100.00
12358;BME280;6243;51.244;6.774;2023-01-28T01:14:23;148925.50;;;5.81;100.00
12358;BME280;6243;51.244;6.774;2023-01-28T01:16:48;148969.84;;;5.98;100.00
12358;BME280;6243;51.244;6.774;2023-01-28T01:19:14;148934.38;;;5.84;100.00
12358;BME280;6243;51.244;6.774;2023-01-28T01:21:39;148959.72;;;5.94;100.00
12358;BME280;6243;51.244;6.774;2023-01-28T01:24:06;148957.22;;;5.93;100.00
12358;BME280;6243;51.244;6.774;2023-01-28T01:26:31;148926.75;;;5.81;100.00
12358;BME280;6243;51.244;6.774;2023-01-28T01:28:57;148903.97;;;5.72;100.00
12358;BME280;6243;51.244;6.774;2023-01-28T01:31:24;148931.81;;;5.83;100.00
12358;BME280;6243;51.244;6.774;2023-01-28T01:33:50;148942.00;;;5.87;100.00
12358;BME280;6243;51.244;6.774;2023-01-28T01:36:17;148944.53;;;5.88;100.00
12358;BME280;6243;51.244;6.774;2023-01-28T01:38:43;148961.00;;;5.95;100.00
12358;BME280;6243;51.244;6.774;2023-01-28T01:41:18;148948.31;;;5.90;100.00
12358;BME280;6243;51.244;6.774;2023-01-28T01:43:48;148942.00;;;5.87;100.00
12358;BME280;6243;51.244;6.774;2023-01-28T01:46:14;148919.16;;;5.78;100.00
12358;BME280;6243;51.244;6.774;2023-01-28T01:48:42;148945.78;;;5.89;100.00
12358;BME280;6243;51.244;6.774;2023-01-28T01:51:09;148963.50;;;5.96;100.00
12358;BME280;6243;51.244;6.774;2023-01-28T01:53:39;148977.44;;;6.01;100.00
12358;BME280;6243;51.244;6.774;2023-01-28T01:56:08;148993.91;;;6.08;100.00
12358;BME280;6243;51.244;6.774;2023-01-28T01:58:38;149015.41;;;6.16;100.00
12358;BME280;6243;51.244;6.774;2023-01-28T02:01:05;149069.88;;;6.38;100.00
12358;BME280;6243;51.244;6.774;2023-01-28T02:03:37;149091.41;;;6.47;100.00
12358;BME280;6243;51.244;6.774;2023-01-28T02:06:07;149063.53;;;6.35;100.00
12358;BME280;6243;51.244;6.774;2023-01-28T02:08:33;149068.59;;;6.37;100.00
12358;BME280;6243;51.244;6.774;2023-01-28T02:11:01;149054.69;;;6.32;100.00
12358;BME280;6243;51.244;6.774;2023-01-28T02:13:30;149067.31;;;6.37;100.00
12358;BME280;6243;51.244;6.774;2023-01-28T02:15:58;149050.88;;;6.30;100.00
12358;BME280;6243;51.244;6.774;2023-01-28T02:18:25;149068.59;;;6.37;100.00
12358;BME280;6243;51.244;6.774;2023-01-28T02:21:08;149085.06;;;6.44;100.00
12358;BME280;6243;51.244;6.774;2023-01-28T02:23:49;149085.06;;;6.44;100.00
12358;BME280;6243;51.244;6.774;2023-01-28T02:26:34;149095.19;;;6.48;100.00
12358;BME280;6243;51.244;6.774;2023-01-28T02:29:11;149091.41;;;6.47;100.00
12358;BME280;6243;51.244;6.774;2023-01-28T02:31:43;149097.72;;;6.49;100.00
12358;BME280;6243;51.244;6.774;2023-01-28T02:34:17;149101.50;;;6.51;100.00
12358;BME280;6243;51.244;6.774;2023-01-28T02:36:48;149111.69;;;6.55;100.00
12358;BME280;6243;51.244;6.774;2023-01-28T02:39:19;149123.09;;;6.59;100.00
12358;BME280;6243;51.244;6.774;2023-01-28T02:41:52;149137.00;;;6.65;100.00
12358;BME280;6243;51.244;6.774;2023-01-28T02:44:21;149117.97;;;6.57;100.00
12358;BME280;6243;51.244;6.774;2023-01-28T02:46:46;149131.94;;;6.63;100.00
12358;BME280;6243;51.244;6.774;2023-01-28T02:49:15;149130.66;;;6.62;100.00
12358;BME280;6243;51.244;6.774;2023-01-28T02:51:52;149139.53;;;6.66;100.00
12358;BME280;6243;51.244;6.774;2023-01-28T02:54:31;149154.72;;;6.72;100.00
12358;BME280;6243;51.244;6.774;2023-01-28T02:57:05;149131.94;;;6.63;100.00
12358;BME280;6243;51.244;6.774;2023-01-28T02:59:41;149106.56;;;6.53;100.00
12358;BME280;6243;51.244;6.774;2023-01-28T03:02:19;149077.50;;;6.41;100.00
12358;BME280;6243;51.244;6.774;2023-01-28T03:04:52;148981.22;;;6.03;100.00
12358;BME280;6243;51.244;6.774;2023-01-28T03:07:22;148898.94;;;5.70;100.00
12358;BME280;6243;51.244;6.774;2023-01-28T03:09:51;148854.59;;;5.52;100.00
12358;BME280;6243;51.244;6.774;2023-01-28T03:12:20;148838.16;;;5.46;100.00
12358;BME280;6243;51.244;6.774;2023-01-28T03:14:50;148862.22;;;5.55;100.00
12358;BME280;6243;51.244;6.774;2023-01-28T03:17:19;148824.25;;;5.40;100.00
12358;BME280;6243;51.244;6.774;2023-01-28T03:19:46;148864.75;;;5.56;100.00
12358;BME280;6243;51.244;6.774;2023-01-28T03:22:12;148886.25;;;5.65;100.00
12358;BME280;6243;51.244;6.774;2023-01-28T03:24:43;148910.31;;;5.74;100.00
12358;BME280;6243;51.244;6.774;2023-01-28T03:27:13;148906.50;;;5.73;100.00
12358;BME280;6243;51.244;6.774;2023-01-28T03:29:42;148916.66;;;5.77;100.00
12358;BME280;6243;51.244;6.774;2023-01-28T03:32:11;148925.50;;;5.81;100.00
12358;BME280;6243;51.244;6.774;2023-01-28T03:34:37;148940.72;;;5.87;100.00
12358;BME280;6243;51.244;6.774;2023-01-28T03:37:03;148926.75;;;5.81;100.00
12358;BME280;6243;51.244;6.774;2023-01-28T03:39:29;148893.88;;;5.68;100.00
12358;BME280;6243;51.244;6.774;2023-01-28T03:42:00;148912.81;;;5.75;100.00
12358;BME280;6243;51.244;6.774;2023-01-28T03:44:26;148930.53;;;5.83;100.00
12358;BME280;6243;51.244;6.774;2023-01-28T03:46:52;148868.53;;;5.58;100.00
12358;BME280;6243;51.244;6.774;2023-01-28T03:49:19;148860.94;;;5.55;100.00
12358;BME280;6243;51.244;6.774;2023-01-28T03:51:44;148888.78;;;5.66;100.00
12358;BME280;6243;51.244;6.774;2023-01-28T03:54:10;148869.81;;;5.58;100.00
12358;BME280;6243;51.244;6.774;2023-01-28T03:56:35;148883.72;;;5.64;100.00
12358;BME280;6243;51.244;6.774;2023-01-28T03:59:01;148868.53;;;5.58;100.00
12358;BME280;6243;51.244;6.774;2023-01-28T04:01:26;148807.81;;;5.34;100.00
12358;BME280;6243;51.244;6.774;2023-01-28T04:03:52;148795.16;;;5.29;100.00
12358;BME280;6243;51.244;6.774;2023-01-28T04:06:19;148785.06;;;5.25;100.00
12358;BME280;6243;51.244;6.774;2023-01-28T04:08:44;148805.28;;;5.33;100.00
12358;BME280;6243;51.244;6.774;2023-01-28T04:11:10;148811.59;;;5.35;100.00
12358;BME280;6243;51.244;6.774;2023-01-28T04:13:35;148810.31;;;5.35;100.00
12358;BME280;6243;51.244;6.774;2023-01-28T04:16:00;148830.59;;;5.43;100.00
12358;BME280;6243;51.244;6.774;2023-01-28T04:18:26;148848.25;;;5.50;100.00
12358;BME280;6243;51.244;6.774;2023-01-28T04:20:51;148867.25;;;5.57;100.00
12358;BME280;6243;51.244;6.774;2023-01-28T04:23:18;148882.47;;;5.63;100.00
12358;BME280;6243;51.244;6.774;2023-01-28T04:25:44;148909.03;;;5.74;100.00
12358;BME280;6243;51.244;6.774;2023-01-28T04:28:09;148919.16;;;5.78;100.00
12358;BME280;6243;51.244;6.774;2023-01-28T04:30:35;148912.81;;;5.75;100.00
12358;BME280;6243;51.244;6.774;2023-01-28T04:33:00;148942.00;;;5.87;100.00
12358;BME280;6243;51.244;6.774;2023-01-28T04:35:26;148961.00;;;5.95;100.00
12358;BME280;6243;51.244;6.774;2023-01-28T04:37:51;148962.25;;;5.95;100.00
12358;BME280;6243;51.244;6.774;2023-01-28T04:40:18;148976.16;;;6.01;100.00
12358;BME280;6243;51.244;6.774;2023-01-28T04:42:52;148978.72;;;6.02;97.94
12358;BME280;6243;51.244;6.774;2023-01-28T04:45:17;148995.16;;;6.08;98.35
12358;BME280;6243;51.244;6.774;2023-01-28T04:47:43;148986.28;;;6.05;97.00
12358;BME280;6243;51.244;6.774;2023-01-28T04:50:09;148985.06;;;6.04;97.23
12358;BME280;6243;51.244;6.774;2023-01-28T04:52:34;148974.88;;;6.00;97.75
12358;BME280;6243;51.244;6.774;2023-01-28T04:55:00;148971.09;;;5.99;96.55
12358;BME280;6243;51.244;6.774;2023-01-28T04:57:27;148967.31;;;5.97;96.59
12358;BME280;6243;51.244;6.774;2023-01-28T04:59:52;148940.72;;;5.87;95.09
12358;BME280;6243;51.244;6.774;2023-01-28T05:02:17;148930.53;;;5.83;96.44
12358;BME280;6243;51.244;6.774;2023-01-28T05:04:43;148936.94;;;5.85;98.50
12358;BME280;6243;51.244;6.774;2023-01-28T05:07:09;148919.16;;;5.78;94.92
12358;BME280;6243;51.244;6.774;2023-01-28T05:09:35;148916.66;;;5.77;94.54
12358;BME280;6243;51.244;6.774;2023-01-28T05:12:00;148892.59;;;5.67;93.77
12358;BME280;6243;51.244;6.774;2023-01-28T05:14:27;148857.16;;;5.53;94.04
12358;BME280;6243;51.244;6.774;2023-01-28T05:16:52;148859.69;;;5.54;94.03
12358;BME280;6243;51.244;6.774;2023-01-28T05:19:18;148840.72;;;5.47;93.87
12358;BME280;6243;51.244;6.774;2023-01-28T05:21:43;148852.09;;;5.51;95.76
12358;BME280;6243;51.244;6.774;2023-01-28T05:24:09;148834.38;;;5.44;93.83
12358;BME280;6243;51.244;6.774;2023-01-28T05:26:35;148839.44;;;5.46;93.38
12358;BME280;6243;51.244;6.774;2023-01-28T05:29:00;148858.44;;;5.54;94.32
12358;BME280;6243;51.244;6.774;2023-01-28T05:31:30;148863.47;;;5.56;94.37
12358;BME280;6243;51.244;6.774;2023-01-28T05:33:55;148881.19;;;5.63;93.13
12358;BME280;6243;51.244;6.774;2023-01-28T05:36:21;148858.44;;;5.54;89.35
12358;BME280;6243;51.244;6.774;2023-01-28T05:38:46;148844.47;;;5.48;89.47
12358;BME280;6243;51.244;6.774;2023-01-28T05:41:12;148867.25;;;5.57;91.73
12358;BME280;6243;51.244;6.774;2023-01-28T05:43:37;148868.53;;;5.58;89.58
12358;BME280;6243;51.244;6.774;2023-01-28T05:46:03;148871.09;;;5.59;90.43
12358;BME280;6243;51.244;6.774;2023-01-28T05:48:30;148881.19;;;5.63;89.58
12358;BME280;6243;51.244;6.774;2023-01-28T05:50:55;148900.16;;;5.70;90.24
12358;BME280;6243;51.244;6.774;2023-01-28T05:53:21;148905.25;;;5.72;87.67
12358;BME280;6243;51.244;6.774;2023-01-28T05:55:47;148915.38;;;5.77;87.93
12358;BME280;6243;51.244;6.774;2023-01-28T05:58:13;148877.38;;;5.61;86.30
12358;BME280;6243;51.244;6.774;2023-01-28T06:00:38;148895.09;;;5.68;87.37
12358;BME280;6243;51.244;6.774;2023-01-28T06:03:04;148893.88;;;5.68;87.18
12358;BME280;6243;51.244;6.774;2023-01-28T06:05:31;148901.44;;;5.71;89.12
12358;BME280;6243;51.244;6.774;2023-01-28T06:07:56;148914.09;;;5.76;90.33
12358;BME280;6243;51.244;6.774;2023-01-28T06:10:21;148926.75;;;5.81;88.33
12358;BME280;6243;51.244;6.774;2023-01-28T06:12:47;148926.75;;;5.81;88.17
12358;BME280;6243;51.244;6.774;2023-01-28T06:15:12;148944.53;;;5.88;87.79
12358;BME280;6243;51.244;6.774;2023-01-28T06:17:38;148942.00;;;5.87;88.15
12358;BME280;6243;51.244;6.774;2023-01-28T06:20:04;148969.84;;;5.98;85.40
12358;BME280;6243;51.244;6.774;2023-01-28T06:22:31;148978.72;;;6.02;85.68
12358;BME280;6243;51.244;6.774;2023-01-28T06:24:57;148990.13;;;6.06;85.68
12358;BME280;6243;51.244;6.774;2023-01-28T06:27:22;148992.63;;;6.07;85.12
12358;BME280;6243;51.244;6.774;2023-01-28T06:29:48;148981.22;;;6.03;84.31
12358;BME280;6243;51.244;6.774;2023-01-28T06:32:13;148959.72;;;5.94;83.05
12358;BME280;6243;51.244;6.774;2023-01-28T06:34:39;148963.50;;;5.96;83.75
12358;BME280;6243;51.244;6.774;2023-01-28T06:37:04;148977.44;;;6.01;84.02
12358;BME280;6243;51.244;6.774;2023-01-28T06:39:31;148978.72;;;6.02;82.04
12358;BME280;6243;51.244;6.774;2023-01-28T06:41:57;148947.03;;;5.89;81.62
12358;BME280;6243;51.244;6.774;2023-01-28T06:44:23;148961.00;;;5.95;81.29
12358;BME280;6243;51.244;6.774;2023-01-28T06:46:48;148967.31;;;5.97;80.67
12358;BME280;6243;51.244;6.774;2023-01-28T06:49:14;148962.25;;;5.95;81.38
12358;BME280;6243;51.244;6.774;2023-01-28T06:51:39;148973.66;;;6.00;82.78
12358;BME280;6243;51.244;6.774;2023-01-28T06:54:05;148968.59;;;5.98;84.64
12358;BME280;6243;51.244;6.774;2023-01-28T06:56:32;148987.56;;;6.05;83.40
12358;BME280;6243;51.244;6.774;2023-01-28T06:58:58;148950.88;;;5.91;84.72
12358;BME280;6243;51.244;6.774;2023-01-28T07:01:23;148954.66;;;5.92;84.77
12358;BME280;6243;51.244;6.774;2023-01-28T07:03:49;148967.31;;;5.97;84.63
12358;BME280;6243;51.244;6.774;2023-01-28T07:06:14;148967.31;;;5.97;81.20
12358;BME280;6243;51.244;6.774;2023-01-28T07:08:40;148973.66;;;6.00;78.77
12358;BME280;6243;51.244;6.774;2023-01-28T07:11:06;148954.66;;;5.92;77.41
12358;BME280;6243;51.244;6.774;2023-01-28T07:13:33;148958.44;;;5.94;78.04
12358;BME280;6243;51.244;6.774;2023-01-28T07:15:59;148924.22;;;5.80;77.00
12358;BME280;6243;51.244;6.774;2023-01-28T07:18:25;148901.44;;;5.71;77.26
12358;BME280;6243;51.244;6.774;2023-01-28T07:20:50;148914.09;;;5.76;78.33
12358;BME280;6243;51.244;6.774;2023-01-28T07:23:16;148921.72;;;5.79;76.95
12358;BME280;6243;51.244;6.774;2023-01-28T07:25:41;148920.44;;;5.79;78.06
12358;BME280;6243;51.244;6.774;2023-01-28T07:28:07;148926.75;;;5.81;78.41
12358;BME280;6243;51.244;6.774;2023-01-28T07:30:34;148935.66;;;5.85;78.15
12358;BME280;6243;51.244;6.774;2023-01-28T07:32:59;148942.00;;;5.87;78.76
12358;BME280;6243;51.244;6.774;2023-01-28T07:35:25;148943.25;;;5.88;80.24
12358;BME280;6243;51.244;6.774;2023-01-28T07:37:51;148969.84;;;5.98;79.64
12358;BME280;6243;51.244;6.774;2023-01-28T07:40:17;148990.13;;;6.06;81.00
12358;BME280;6243;51.244;6.774;2023-01-28T07:42:43;148983.78;;;6.04;77.54
12358;BME280;6243;51.244;6.774;2023-01-28T07:45:09;148964.78;;;5.96;76.98
12358;BME280;6243;51.244;6.774;2023-01-28T07:47:36;148976.16;;;6.01;78.86
12358;BME280;6243;51.244;6.774;2023-01-28T07:50:02;148982.50;;;6.03;78.12
12358;BME280;6243;51.244;6.774;2023-01-28T07:52:28;149026.81;;;6.21;76.81
12358;BME280;6243;51.244;6.774;2023-01-28T07:54:53;148976.16;;;6.01;77.83
12358;BME280;6243;51.244;6.774;2023-01-28T07:57:19;148934.38;;;5.84;78.32
12358;BME280;6243;51.244;6.774;2023-01-28T07:59:44;148901.44;;;5.71;79.67
12358;BME280;6243;51.244;6.774;2023-01-28T08:02:10;148886.25;;;5.65;81.00
12358;BME280;6243;51.244;6.774;2023-01-28T08:04:37;148910.31;;;5.74;82.03
12358;BME280;6243;51.244;6.774;2023-01-28T08:07:03;148985.06;;;6.04;79.71
12358;BME280;6243;51.244;6.774;2023-01-28T08:09:29;148991.38;;;6.07;75.69
12358;BME280;6243;51.244;6.774;2023-01-28T08:11:54;148922.94;;;5.80;77.92
12358;BME280;6243;51.244;6.774;2023-01-28T08:14:20;148928.03;;;5.82;78.89
12358;BME280;6243;51.244;6.774;2023-01-28T08:16:45;148963.50;;;5.96;80.18
12358;BME280;6243;51.244;6.774;2023-01-28T08:19:11;148964.78;;;5.96;79.84
12358;BME280;6243;51.244;6.774;2023-01-28T08:21:37;148945.78;;;5.89;80.09
12358;BME280;6243;51.244;6.774;2023-01-28T08:24:04;148981.22;;;6.03;79.71
12358;BME280;6243;51.244;6.774;2023-01-28T08:26:29;149015.41;;;6.16;78.85
12358;BME280;6243;51.244;6.774;2023-01-28T08:28:55;149030.63;;;6.22;78.66
12358;BME280;6243;51.244;6.774;2023-01-28T08:31:20;149040.75;;;6.26;77.85
12358;BME280;6243;51.244;6.774;2023-01-28T08:33:46;149061.00;;;6.34;75.15
12358;BME280;6243;51.244;6.774;2023-01-28T08:36:11;149042.03;;;6.27;74.50
12358;BME280;6243;51.244;6.774;2023-01-28T08:38:38;148957.22;;;5.93;73.53
12358;BME280;6243;51.244;6.774;2023-01-28T08:41:04;148943.25;;;5.88;76.08
12358;BME280;6243;51.244;6.774;2023-01-28T08:43:29;148958.44;;;5.94;75.49
12358;BME280;6243;51.244;6.774;2023-01-28T08:45:55;148947.03;;;5.89;77.82
12358;BME280;6243;51.244;6.774;2023-01-28T08:48:20;148972.38;;;5.99;77.08
12358;BME280;6243;51.244;6.774;2023-01-28T08:50:46;148995.16;;;6.08;76.10
12358;BME280;6243;51.244;6.774;2023-01-28T08:53:13;148978.72;;;6.02;76.34
12358;BME280;6243;51.244;6.774;2023-01-28T08:55:40;149002.78;;;6.11;76.55
12358;BME280;6243;51.244;6.774;2023-01-28T08:58:09;149033.13;;;6.23;74.34
12358;BME280;6243;51.244;6.774;2023-01-28T09:00:35;149030.63;;;6.22;74.61
12358;BME280;6243;51.244;6.774;2023-01-28T09:03:01;149026.81;;;6.21;74.83
12358;BME280;6243;51.244;6.774;2023-01-28T09:05:28;148935.66;;;5.85;73.18
12358;BME280;6243;51.244;6.774;2023-01-28T09:07:53;148929.28;;;5.82;73.95
12358;BME280;6243;51.244;6.774;2023-01-28T09:10:19;148942.00;;;5.87;74.40
12358;BME280;6243;51.244;6.774;2023-01-28T09:12:46;148959.72;;;5.94;74.59
12358;BME280;6243;51.244;6.774;2023-01-28T09:15:12;148957.22;;;5.93;73.95
12358;BME280;6243;51.244;6.774;2023-01-28T09:17:38;148961.00;;;5.95;73.88
12358;BME280;6243;51.244;6.774;2023-01-28T09:20:05;148881.19;;;5.63;73.24
12358;BME280;6243;51.244;6.774;2023-01-28T09:22:31;148867.25;;;5.57;72.90
12358;BME280;6243;51.244;6.774;2023-01-28T09:24:57;148850.81;;;5.51;74.71
12358;BME280;6243;51.244;6.774;2023-01-28T09:27:22;148812.88;;;5.36;74.46
12358;BME280;6243;51.244;6.774;2023-01-28T09:29:49;148815.38;;;5.37;75.83
12358;BME280;6243;51.244;6.774;2023-01-28T09:32:15;148839.44;;;5.46;75.25
12358;BME280;6243;51.244;6.774;2023-01-28T09:34:40;148863.47;;;5.56;75.67
12358;BME280;6243;51.244;6.774;2023-01-28T09:37:05;148892.59;;;5.67;76.12
12358;BME280;6243;51.244;6.774;2023-01-28T09:39:31;148911.53;;;5.75;75.47
12358;BME280;6243;51.244;6.774;2023-01-28T09:42:08;148888.78;;;5.66;74.78
12358;BME280;6243;51.244;6.774;2023-01-28T09:44:50;148891.31;;;5.67;75.10
12358;BME280;6243;51.244;6.774;2023-01-28T09:47:23;148891.31;;;5.67;74.88
12358;BME280;6243;51.244;6.774;2023-01-28T09:49:52;148897.66;;;5.69;75.64
12358;BME280;6243;51.244;6.774;2023-01-28T09:52:20;148911.53;;;5.75;77.04
12358;BME280;6243;51.244;6.774;2023-01-28T09:54:48;148881.19;;;5.63;75.00
12358;BME280;6243;51.244;6.774;2023-01-28T09:57:20;148891.31;;;5.67;76.39
12358;BME280;6243;51.244;6.774;2023-01-28T09:59:47;148860.94;;;5.55;74.42
12358;BME280;6243;51.244;6.774;2023-01-28T10:02:25;148871.09;;;5.59;75.50
12358;BME280;6243;51.244;6.774;2023-01-28T10:05:00;148887.53;;;5.65;76.60
12358;BME280;6243;51.244;6.774;2023-01-28T10:07:34;148901.44;;;5.71;76.00
12358;BME280;6243;51.244;6.774;2023-01-28T10:10:07;148916.66;;;5.77;76.17
12358;BME280;6243;51.244;6.774;2023-01-28T10:12:48;148930.53;;;5.83;75.12
12358;BME280;6243;51.244;6.774;2023-01-28T10:15:39;148910.31;;;5.74;75.89
12358;BME280;6243;51.244;6.774;2023-01-28T10:18:12;148909.03;;;5.74;76.14
12358;BME280;6243;51.244;6.774;2023-01-28T10:20:41;148931.81;;;5.83;75.12
12358;BME280;6243;51.244;6.774;2023-01-28T10:23:13;148947.03;;;5.89;75.82
12358;BME280;6243;51.244;6.774;2023-01-28T10:25:41;148974.88;;;6.00;74.52
12358;BME280;6243;51.244;6.774;2023-01-28T10:28:16;148976.16;;;6.01;75.26
12358;BME280;6243;51.244;6.774;2023-01-28T10:30:43;148974.88;;;6.00;74.08
12358;BME280;6243;51.244;6.774;2023-01-28T10:33:17;148947.03;;;5.89;74.22
12358;BME280;6243;51.244;6.774;2023-01-28T10:35:43;148944.53;;;5.88;74.45
12358;BME280;6243;51.244;6.774;2023-01-28T10:38:12;148893.88;;;5.68;73.12
12358;BME280;6243;51.244;6.774;2023-01-28T10:40:39;148895.09;;;5.68;72.85
12358;BME280;6243;51.244;6.774;2023-01-28T10:43:05;148907.75;;;5.73;74.63
12358;BME280;6243;51.244;6.774;2023-01-28T10:45:33;148929.28;;;5.82;75.96
12358;BME280;6243;51.244;6.774;2023-01-28T10:48:06;148969.84;;;5.98;74.83
12358;BME280;6243;51.244;6.774;2023-01-28T10:50:34;148996.44;;;6.09;73.98
12358;BME280;6243;51.244;6.774;2023-01-28T10:53:02;148977.44;;;6.01;73.26
12358;BME280;6243;51.244;6.774;2023-01-28T10:55:30;148949.59;;;5.90;72.58
12358;BME280;6243;51.244;6.774;2023-01-28T10:58:01;148905.25;;;5.72;73.06
12358;BME280;6243;51.244;6.774;2023-01-28T11:00:32;148868.53;;;5.58;73.40
12358;BME280;6243;51.244;6.774;2023-01-28T11:02:58;148860.94;;;5.55;72.99
12358;BME280;6243;51.244;6.774;2023-01-28T11:05:25;148887.53;;;5.65;73.76
12358;BME280;6243;51.244;6.774;2023-01-28T11:08:04;148925.50;;;5.81;73.30
12358;BME280;6243;51.244;6.774;2023-01-28T11:10:31;148959.72;;;5.94;74.55
12358;BME280;6243;51.244;6.774;2023-01-28T11:12:58;148972.38;;;5.99;72.83
12358;BME280;6243;51.244;6.774;2023-01-28T11:15:25;148964.78;;;5.96;71.26
12358;BME280;6243;51.244;6.774;2023-01-28T11:17:55;148990.13;;;6.06;73.15
12358;BME280;6243;51.244;6.774;2023-01-28T11:20:23;148982.50;;;6.03;71.76
12358;BME280;6243;51.244;6.774;2023-01-28T11:22:50;149002.78;;;6.11;72.01
12358;BME280;6243;51.244;6.774;2023-01-28T11:25:22;149009.06;;;6.14;71.69
12358;BME280;6243;51.244;6.774;2023-01-28T11:27:51;149012.91;;;6.15;71.34
12358;BME280;6243;51.244;6.774;2023-01-28T11:30:21;149025.56;;;6.20;71.08
12358;BME280;6243;51.244;6.774;2023-01-28T11:32:54;149039.47;;;6.26;73.41
12358;BME280;6243;51.244;6.774;2023-01-28T11:35:24;149054.69;;;6.32;72.17
12358;BME280;6243;51.244;6.774;2023-01-28T11:37:50;149021.75;;;6.19;69.72
12358;BME280;6243;51.244;6.774;2023-01-28T11:40:18;149007.84;;;6.13;69.84
12358;BME280;6243;51.244;6.774;2023-01-28T11:42:44;148967.31;;;5.97;70.79
12358;BME280;6243;51.244;6.774;2023-01-28T11:45:15;148958.44;;;5.94;71.01
12358;BME280;6243;51.244;6.774;2023-01-28T11:47:48;148929.28;;;5.82;70.88
12358;BME280;6243;51.244;6.774;2023-01-28T11:50:24;148947.03;;;5.89;71.20
12358;BME280;6243;51.244;6.774;2023-01-28T11:53:02;148945.78;;;5.89;71.19
12358;BME280;6243;51.244;6.774;2023-01-28T11:55:41;148947.03;;;5.89;70.54
12358;BME280;6243;51.244;6.774;2023-01-28T11:58:20;148954.66;;;5.92;71.04
12358;BME280;6243;51.244;6.774;2023-01-28T12:00:51;148934.38;;;5.84;70.83
12358;BME280;6243;51.244;6.774;2023-01-28T12:03:37;148858.44;;;5.54;70.97
12358;BME280;6243;51.244;6.774;2023-01-28T12:06:18;148886.25;;;5.65;72.43
12358;BME280;6243;51.244;6.774;2023-01-28T12:08:55;148903.97;;;5.72;71.99
12358;BME280;6243;51.244;6.774;2023-01-28T12:11:29;148860.94;;;5.55;70.95
12358;BME280;6243;51.244;6.774;2023-01-28T12:14:03;148868.53;;;5.58;71.19
12358;BME280;6243;51.244;6.774;2023-01-28T12:16:41;148900.16;;;5.70;72.73
12358;BME280;6243;51.244;6.774;2023-01-28T12:19:39;148909.03;;;5.74;71.76
12358;BME280;6243;51.244;6.774;2023-01-28T12:22:35;148901.44;;;5.71;71.14
12358;BME280;6243;51.244;6.774;2023-01-28T12:25:25;148890.03;;;5.66;70.82
12358;BME280;6243;51.244;6.774;2023-01-28T12:28:01;148891.31;;;5.67;72.04
12358;BME280;6243;51.244;6.774;2023-01-28T12:30:47;148900.16;;;5.70;71.42
12358;BME280;6243;51.244;6.774;2023-01-28T12:33:43;148911.53;;;5.75;70.78
12358;BME280;6243;51.244;6.774;2023-01-28T12:36:22;148907.75;;;5.73;71.39
12358;BME280;6243;51.244;6.774;2023-01-28T12:39:00;148909.03;;;5.74;71.47
12358;BME280;6243;51.244;6.774;2023-01-28T12:41:33;148891.31;;;5.67;70.46
12358;BME280;6243;51.244;6.774;2023-01-28T12:44:04;148882.47;;;5.63;70.40
12358;BME280;6243;51.244;6.774;2023-01-28T12:46:39;148914.09;;;5.76;70.57
12358;BME280;6243;51.244;6.774;2023-01-28T12:49:11;148865.97;;;5.57;71.71
12358;BME280;6243;51.244;6.774;2023-01-28T12:51:46;148953.38;;;5.92;72.61
12358;BME280;6243;51.244;6.774;2023-01-28T12:54:18;148998.94;;;6.10;69.84
12358;BME280;6243;51.244;6.774;2023-01-28T12:56:49;148987.56;;;6.05;70.57
12358;BME280;6243;51.244;6.774;2023-01-28T12:59:21;149010.34;;;6.14;70.04
12358;BME280;6243;51.244;6.774;2023-01-28T13:01:54;149031.88;;;6.23;70.63
12358;BME280;6243;51.244;6.774;2023-01-28T13:04:28;149055.94;;;6.32;70.82
12358;BME280;6243;51.244;6.774;2023-01-28T13:06:58;149019.22;;;6.18;69.64
12358;BME280;6243;51.244;6.774;2023-01-28T13:09:27;148781.22;;;5.23;72.58
12358;BME280;6243;51.244;6.774;2023-01-28T13:11:56;148949.59;;;5.90;71.24
12358;BME280;6243;51.244;6.774;2023-01-28T13:14:28;148877.38;;;5.61;71.54